Time;durP1;ratioP1;P1;durP2;ratioP2;P2;SDS_P1;SDS_P2;PMS_P1;PMS_P2;Temp;Humidity;BMP_temperature;BMP_pressure;BME280_temperature;BME280_humidity;BME280_pressure;Samples;Min_cycle;Max_cycle;Signal;HPM_P1;HPM_P2
2021/12/07 00:00:52;;;;;;;48.70;28.67;;;0.90;99.90;;;;;;5048994;28;20025;-61
2021/12/07 00:03:19;;;;;;;53.22;30.30;;;0.80;99.90;;;;;;5049022;28;20032;-61
2021/12/07 00:05:45;;;;;;;50.42;27.90;;;0.80;99.90;;;;;;5049478;28;20060;-61
2021/12/07 00:08:10;;;;;;;49.92;30.77;;;0.80;99.90;;;;;;5049199;28;20513;-61
2021/12/07 00:10:38;;;;;;;51.33;30.85;;;0.80;99.90;;;;;;5049374;28;20071;-60
2021/12/07 00:13:04;;;;;;;49.85;31.05;;;0.80;99.90;;;;;;5051132;28;20478;-61
2021/12/07 00:15:30;;;;;;;56.20;32.13;;;0.80;99.90;;;;;;5051572;28;20056;-61
2021/12/07 00:17:57;;;;;;;52.63;29.58;;;0.80;99.90;;;;;;5051361;28;20017;-61
2021/12/07 00:20:24;;;;;;;55.47;31.25;;;0.80;99.90;;;;;;5051239;28;20020;-61
2021/12/07 00:22:53;;;;;;;51.33;29.35;;;0.80;99.90;;;;;;5050723;28;20017;-61
2021/12/07 00:25:19;;;;;;;51.10;31.33;;;0.80;99.90;;;;;;5050062;28;20048;-61
2021/12/07 00:27:44;;;;;;;57.55;33.30;;;0.80;99.90;;;;;;5049913;28;20036;-61
2021/12/07 00:30:12;;;;;;;51.70;31.52;;;0.80;99.90;;;;;;5049919;28;20035;-61
2021/12/07 00:32:43;;;;;;;46.58;29.58;;;0.80;99.90;;;;;;5049976;28;20070;-61
2021/12/07 00:37:38;;;;;;;49.95;31.33;;;0.80;99.90;;;;;;5050057;28;20021;-60
2021/12/07 00:40:07;;;;;;;51.55;28.70;;;0.80;99.90;;;;;;5049582;28;20033;-61
2021/12/07 00:42:32;;;;;;;45.95;28.50;;;0.80;99.90;;;;;;5050896;28;20469;-61
2021/12/07 00:44:59;;;;;;;44.63;27.17;;;0.80;99.90;;;;;;5051458;28;20033;-61
2021/12/07 00:47:25;;;;;;;44.85;27.63;;;0.80;99.90;;;;;;5051393;28;20025;-60
2021/12/07 00:49:51;;;;;;;46.20;28.08;;;0.80;99.90;;;;;;5049968;28;20028;-61
2021/12/07 00:52:16;;;;;;;50.03;30.63;;;0.80;99.90;;;;;;5051457;28;20162;-61
2021/12/07 00:54:42;;;;;;;55.17;31.92;;;0.90;99.90;;;;;;5051388;28;20029;-61
2021/12/07 00:57:08;;;;;;;52.85;32.38;;;0.90;99.90;;;;;;5049941;28;20036;-61
2021/12/07 00:59:33;;;;;;;57.08;33.53;;;0.90;99.90;;;;;;5048624;28;20025;-60
2021/12/07 01:02:00;;;;;;;52.38;31.60;;;0.90;99.90;;;;;;5049516;28;20434;-61
2021/12/07 01:04:28;;;;;;;53.17;30.65;;;0.90;99.90;;;;;;5049748;28;20092;-60
2021/12/07 01:09:28;;;;;;;52.03;31.50;;;0.90;99.90;;;;;;5049919;28;20032;-61
2021/12/07 01:25:41;;;;;;;53.47;31.13;;;0.60;99.90;;;;;;5054219;28;20063;-61
2021/12/07 01:36:43;;;;;;;53.40;32.65;;;0.40;99.90;;;;;;5052535;28;20025;-61
2021/12/07 01:44:50;;;;;;;56.05;30.40;;;0.30;99.90;;;;;;5052292;28;20165;-60
2021/12/07 02:00:48;;;;;;;53.33;32.00;;;0.40;99.90;;;;;;5053494;28;20450;-61
2021/12/07 02:03:14;;;;;;;56.17;30.63;;;0.40;99.90;;;;;;5052735;28;20075;-60
2021/12/07 02:05:40;;;;;;;84.97;42.55;;;0.50;99.90;;;;;;5054250;28;20029;-60
2021/12/07 02:08:06;;;;;;;60.35;34.72;;;0.50;99.90;;;;;;5053832;28;20044;-61
2021/12/07 02:10:32;;;;;;;64.97;37.13;;;0.60;99.90;;;;;;5054192;28;20020;-61
2021/12/07 02:13:06;;;;;;;66.35;37.72;;;0.60;99.90;;;;;;5051982;28;20102;-60
2021/12/07 02:15:32;;;;;;;71.55;38.65;;;0.60;99.90;;;;;;5054162;28;20032;-60
2021/12/07 02:17:59;;;;;;;60.22;33.13;;;0.60;99.90;;;;;;5052572;28;20059;-61
2021/12/07 02:20:28;;;;;;;52.38;30.33;;;0.60;99.90;;;;;;5053981;28;20032;-60
2021/12/07 02:22:54;;;;;;;57.58;33.00;;;0.60;99.90;;;;;;5053974;28;20044;-61
2021/12/07 02:25:21;;;;;;;56.42;32.65;;;0.70;99.90;;;;;;5053126;28;20074;-60
2021/12/07 02:27:48;;;;;;;62.85;33.78;;;0.60;99.90;;;;;;5050216;28;20025;-60
2021/12/07 02:30:18;;;;;;;56.92;32.17;;;0.60;99.90;;;;;;5053448;28;20025;-60
2021/12/07 02:32:44;;;;;;;56.38;31.55;;;0.70;99.90;;;;;;5053328;28;20598;-60
2021/12/07 02:35:12;;;;;;;55.60;32.08;;;0.70;99.90;;;;;;5053313;28;20029;-60
2021/12/07 02:37:38;;;;;;;54.25;31.92;;;0.70;99.90;;;;;;5053474;28;20372;-60
2021/12/07 02:40:06;;;;;;;54.20;32.30;;;0.80;99.90;;;;;;5053575;28;20025;-61
2021/12/07 02:42:32;;;;;;;55.53;32.20;;;0.80;99.90;;;;;;5053626;28;20525;-61
2021/12/07 02:44:57;;;;;;;58.33;34.30;;;0.80;99.90;;;;;;5052466;28;20028;-60
2021/12/07 02:47:23;;;;;;;58.28;33.13;;;0.90;99.90;;;;;;5053677;28;20024;-60
2021/12/07 02:49:49;;;;;;;52.60;32.78;;;0.90;99.90;;;;;;5053491;28;20059;-61
2021/12/07 02:52:15;;;;;;;47.95;29.92;;;0.90;99.90;;;;;;5052935;28;20029;-60
2021/12/07 02:54:49;;;;;;;52.17;32.15;;;1.00;99.90;;;;;;5053021;28;20017;-60
2021/12/07 02:57:17;;;;;;;46.38;29.98;;;1.00;99.90;;;;;;5053180;28;20025;-61
2021/12/07 02:59:49;;;;;;;55.72;31.85;;;1.10;99.90;;;;;;5053072;28;20025;-61
2021/12/07 03:02:16;;;;;;;53.13;32.83;;;1.00;99.90;;;;;;5053342;28;20083;-61
2021/12/07 03:04:54;;;;;;;56.58;33.72;;;0.80;99.90;;;;;;5052255;28;20067;-60
2021/12/07 03:26:33;;;;;;;177.43;40.20;;;0.00;99.90;;;;;;5052963;28;20086;-60
2021/12/07 03:29:00;;;;;;;122.30;39.53;;;0.00;99.90;;;;;;5051363;28;20094;-60
2021/12/07 03:31:27;;;;;;;69.90;36.30;;;-0.10;99.90;;;;;;5051176;28;20483;-60
2021/12/07 03:33:54;;;;;;;78.38;34.85;;;-0.20;99.90;;;;;;5051474;28;20476;-60
2021/12/07 03:36:20;;;;;;;99.22;34.42;;;-0.30;99.90;;;;;;5051429;28;20025;-60
2021/12/07 03:38:47;;;;;;;336.38;42.50;;;-0.40;99.90;;;;;;5051458;28;20024;-60
2021/12/07 03:41:13;;;;;;;218.27;41.47;;;-0.40;99.90;;;;;;5051213;28;20487;-60
2021/12/07 03:43:40;;;;;;;252.55;42.13;;;-0.40;99.90;;;;;;5051103;28;20021;-60
2021/12/07 03:46:06;;;;;;;146.77;39.10;;;-0.40;99.90;;;;;;5051108;28;20037;-60
2021/12/07 03:48:32;;;;;;;82.65;37.80;;;-0.40;99.90;;;;;;5051338;28;20040;-60
2021/12/07 03:50:58;;;;;;;78.05;36.50;;;-0.40;99.90;;;;;;5051460;28;20065;-60
2021/12/07 03:53:24;;;;;;;64.82;35.83;;;-0.40;99.90;;;;;;5051992;28;20387;-60
2021/12/07 03:55:50;;;;;;;68.40;35.60;;;-0.50;99.90;;;;;;5050548;28;20087;-60
2021/12/07 03:58:16;;;;;;;85.43;36.75;;;-0.50;99.90;;;;;;5051842;28;20020;-60
2021/12/07 04:00:45;;;;;;;79.05;38.58;;;-0.40;99.90;;;;;;5050808;28;20017;-60
2021/12/07 04:03:14;;;;;;;156.65;39.55;;;-0.30;99.90;;;;;;5050248;28;20021;-60
2021/12/07 04:05:47;;;;;;;82.63;36.67;;;-0.30;99.90;;;;;;5050143;28;20558;-60
2021/12/07 04:08:14;;;;;;;95.07;37.30;;;-0.20;99.90;;;;;;5050273;28;20025;-60
2021/12/07 04:10:40;;;;;;;99.00;39.38;;;-0.20;99.90;;;;;;5050509;28;20032;-60
2021/12/07 04:13:06;;;;;;;79.25;38.90;;;-0.10;99.90;;;;;;5049208;28;20064;-60
2021/12/07 04:15:32;;;;;;;88.90;36.40;;;-0.10;99.90;;;;;;5050683;28;20025;-60
2021/12/07 04:17:58;;;;;;;103.70;38.67;;;-0.10;99.90;;;;;;5050443;28;20070;-60
2021/12/07 04:20:25;;;;;;;74.72;38.58;;;-0.10;99.90;;;;;;5050891;28;20488;-60
2021/12/07 04:22:50;;;;;;;66.93;36.75;;;-0.10;99.90;;;;;;5051203;28;20075;-60
2021/12/07 04:25:17;;;;;;;78.90;37.55;;;-0.10;99.90;;;;;;5051537;28;20519;-60
2021/12/07 04:27:44;;;;;;;74.18;36.17;;;-0.20;99.90;;;;;;5050398;28;20025;-60
2021/12/07 04:30:22;;;;;;;69.43;35.80;;;-0.20;99.90;;;;;;5051006;28;20496;-60
2021/12/07 04:32:48;;;;;;;62.55;34.95;;;-0.10;99.90;;;;;;5051507;28;20535;-60
2021/12/07 04:35:15;;;;;;;67.38;34.38;;;-0.10;99.90;;;;;;5049764;28;20028;-60
2021/12/07 04:37:40;;;;;;;59.55;34.17;;;-0.10;99.90;;;;;;5050765;28;20025;-60
2021/12/07 04:40:09;;;;;;;64.32;35.60;;;-0.10;99.90;;;;;;5049238;28;20020;-60
2021/12/07 04:42:35;;;;;;;56.25;32.75;;;-0.10;99.90;;;;;;5050172;28;20082;-60
2021/12/07 04:45:04;;;;;;;60.03;34.55;;;-0.10;99.90;;;;;;5048591;28;20025;-61
2021/12/07 04:58:20;;;;;;;53.63;30.83;;;0.10;99.90;;;;;;5050587;28;20087;-61
2021/12/07 05:00:45;;;;;;;44.15;27.80;;;0.00;99.90;;;;;;5050309;28;20024;-61
2021/12/07 05:03:14;;;;;;;42.75;27.02;;;0.10;99.90;;;;;;5050170;28;20021;-61
2021/12/07 05:05:45;;;;;;;41.97;25.55;;;0.20;99.90;;;;;;5050094;28;20495;-61
2021/12/07 05:08:14;;;;;;;40.10;25.75;;;0.20;99.90;;;;;;5049769;28;20079;-61
2021/12/07 05:34:40;;;;;;;33.10;21.85;;;0.40;99.90;;;;;;5049461;28;20078;-61
2021/12/07 05:39:50;;;;;;;28.67;19.27;;;0.50;99.90;;;;;;5049968;28;20086;-61
2021/12/07 05:42:16;;;;;;;29.83;18.85;;;0.50;99.90;;;;;;5049806;28;20014;-61
2021/12/07 05:44:42;;;;;;;23.33;17.08;;;0.50;99.90;;;;;;5049683;28;20240;-61
2021/12/07 05:47:08;;;;;;;25.20;18.23;;;0.50;99.90;;;;;;5049412;28;20078;-61
2021/12/07 05:49:35;;;;;;;19.13;15.23;;;0.60;99.90;;;;;;5049646;28;20029;-61
2021/12/07 05:52:01;;;;;;;25.17;19.38;;;0.60;99.90;;;;;;5049350;28;20052;-61
2021/12/07 05:54:27;;;;;;;22.73;16.25;;;0.70;99.90;;;;;;5048379;28;20079;-61
2021/12/07 05:56:53;;;;;;;19.80;13.82;;;0.60;99.90;;;;;;5049452;28;20025;-61
2021/12/07 05:59:19;;;;;;;50.83;28.27;;;0.70;99.90;;;;;;5049505;28;20021;-60
2021/12/07 06:01:44;;;;;;;28.40;19.45;;;0.60;99.90;;;;;;5049841;28;20029;-61
2021/12/07 06:04:10;;;;;;;28.90;21.40;;;0.60;99.90;;;;;;5052440;28;20025;-60
2021/12/07 06:06:36;;;;;;;23.30;18.25;;;0.60;99.90;;;;;;5052902;28;20070;-61
2021/12/07 06:09:03;;;;;;;17.63;12.18;;;0.60;99.90;;;;;;5053341;28;20032;-60
2021/12/07 06:11:28;;;;;;;15.85;12.68;;;0.70;99.90;;;;;;5052987;28;20066;-60
2021/12/07 06:13:54;;;;;;;14.48;11.02;;;0.70;99.90;;;;;;5059660;28;20087;-60
2021/12/07 06:16:20;;;;;;;15.93;11.15;;;0.70;99.90;;;;;;5072578;28;20032;-60
2021/12/07 06:18:46;;;;;;;14.93;11.20;;;0.70;99.90;;;;;;5073380;28;20031;-60
2021/12/07 06:21:13;;;;;;;13.32;9.88;;;0.70;99.90;;;;;;5073476;28;20021;-60
2021/12/07 06:23:39;;;;;;;16.08;10.25;;;0.80;99.90;;;;;;5072895;28;20020;-60
2021/12/07 06:26:06;;;;;;;16.08;10.95;;;0.80;99.90;;;;;;5073620;28;20024;-60
2021/12/07 06:28:32;;;;;;;15.25;10.52;;;0.80;99.90;;;;;;5073840;28;20390;-60
2021/12/07 06:30:58;;;;;;;13.10;10.98;;;0.80;99.90;;;;;;5073060;28;20031;-60
2021/12/07 06:33:26;;;;;;;13.27;9.90;;;0.80;99.90;;;;;;5072638;28;20028;-60
2021/12/07 06:35:57;;;;;;;11.80;9.40;;;0.80;99.90;;;;;;5072084;28;20429;-60
2021/12/07 06:38:30;;;;;;;11.02;9.80;;;0.80;99.90;;;;;;5072408;28;20028;-60
2021/12/07 06:41:03;;;;;;;9.50;8.57;;;0.90;99.90;;;;;;5073612;28;20103;-60
2021/12/07 06:43:29;;;;;;;12.65;9.98;;;0.80;99.90;;;;;;5073512;28;20017;-60
2021/12/07 06:45:55;;;;;;;8.88;8.00;;;0.90;99.90;;;;;;5071986;28;20032;-60
2021/12/07 06:48:21;;;;;;;13.80;8.38;;;0.90;99.90;;;;;;5073267;28;20029;-60
2021/12/07 06:50:47;;;;;;;11.85;9.30;;;0.90;99.90;;;;;;5072439;28;20020;-60
2021/12/07 06:53:13;;;;;;;10.40;8.45;;;0.70;99.90;;;;;;5072999;28;20107;-60
2021/12/07 06:55:39;;;;;;;10.02;8.52;;;0.80;99.90;;;;;;5073386;28;20108;-60
2021/12/07 06:58:05;;;;;;;8.13;7.35;;;0.70;99.90;;;;;;5071892;28;20391;-60
2021/12/07 07:00:31;;;;;;;8.65;7.75;;;0.60;99.90;;;;;;5073369;28;20038;-60
2021/12/07 07:02:57;;;;;;;7.50;6.75;;;0.60;99.90;;;;;;5072625;28;20090;-61
2021/12/07 07:05:23;;;;;;;8.73;7.85;;;0.60;99.90;;;;;;5071829;28;20021;-60
2021/12/07 07:07:49;;;;;;;9.25;6.75;;;0.60;99.90;;;;;;5073127;28;20035;-60
2021/12/07 07:10:17;;;;;;;9.65;8.07;;;0.60;99.90;;;;;;5073077;28;20032;-60
2021/12/07 07:12:44;;;;;;;7.30;6.63;;;0.60;99.90;;;;;;5072341;28;20080;-60
2021/12/07 07:15:11;;;;;;;12.93;9.25;;;0.60;99.90;;;;;;5072393;28;20033;-60
2021/12/07 07:17:37;;;;;;;15.73;9.90;;;0.50;99.90;;;;;;5071315;28;20025;-61
2021/12/07 07:20:05;;;;;;;138.60;40.63;;;0.50;99.90;;;;;;5070534;28;20020;-61
2021/12/07 07:22:31;;;;;;;44.47;22.52;;;0.40;99.90;;;;;;5070744;28;20269;-61
2021/12/07 07:24:56;;;;;;;50.40;26.38;;;0.50;99.90;;;;;;5071596;28;20083;-61
2021/12/07 07:27:22;;;;;;;24.20;14.73;;;0.40;99.90;;;;;;5071774;28;20103;-61
2021/12/07 07:29:48;;;;;;;10.70;8.57;;;0.50;99.90;;;;;;5071565;28;20078;-61
2021/12/07 07:32:14;;;;;;;30.63;19.42;;;0.50;99.90;;;;;;5071303;28;20028;-61
2021/12/07 07:34:40;;;;;;;16.95;10.75;;;0.50;99.90;;;;;;5071510;28;20360;-61
2021/12/07 07:37:05;;;;;;;17.55;12.00;;;0.50;99.90;;;;;;5071161;28;20429;-61
2021/12/07 07:39:32;;;;;;;78.18;34.22;;;0.60;99.90;;;;;;5071529;28;20020;-61
2021/12/07 07:41:57;;;;;;;33.92;18.90;;;0.60;99.90;;;;;;5071194;28;20472;-61
2021/12/07 07:44:23;;;;;;;38.70;17.88;;;0.70;99.90;;;;;;5071150;28;20040;-61
2021/12/07 07:46:49;;;;;;;8.85;7.53;;;0.70;99.90;;;;;;5071176;28;20086;-61
2021/12/07 07:49:14;;;;;;;108.22;45.75;;;0.70;99.90;;;;;;5070924;28;20016;-61
2021/12/07 07:51:40;;;;;;;26.65;13.52;;;0.60;99.90;;;;;;5071247;28;20539;-61
2021/12/07 07:54:06;;;;;;;10.55;7.20;;;0.70;99.90;;;;;;5071108;28;20025;-61
2021/12/07 07:56:33;;;;;;;25.20;15.82;;;0.70;99.90;;;;;;5071203;28;20043;-61
2021/12/07 07:58:59;;;;;;;10.90;7.30;;;0.80;99.90;;;;;;5071261;28;20392;-61
2021/12/07 08:01:28;;;;;;;9.93;7.45;;;0.80;99.90;;;;;;5071010;28;20021;-61
2021/12/07 08:03:54;;;;;;;8.00;6.25;;;0.90;99.90;;;;;;5070614;28;20028;-61
2021/12/07 08:06:20;;;;;;;9.18;8.20;;;0.90;99.90;;;;;;5070962;28;20039;-61
2021/12/07 08:08:46;;;;;;;13.13;8.43;;;0.90;99.90;;;;;;5070920;28;20028;-60
2021/12/07 08:11:13;;;;;;;13.90;8.82;;;0.90;99.90;;;;;;5070823;28;20028;-61
2021/12/07 08:13:39;;;;;;;11.45;8.20;;;1.00;99.90;;;;;;5069955;28;20059;-61
2021/12/07 08:16:06;;;;;;;12.15;8.00;;;1.00;99.90;;;;;;5070559;28;20028;-61
2021/12/07 08:18:31;;;;;;;11.23;7.82;;;1.00;99.90;;;;;;5070732;28;20065;-61
2021/12/07 08:20:57;;;;;;;10.13;7.00;;;1.00;99.90;;;;;;5070654;28;20601;-60
2021/12/07 08:23:23;;;;;;;9.95;7.45;;;1.10;99.90;;;;;;5070698;28;20020;-60
2021/12/07 08:25:49;;;;;;;7.85;7.05;;;1.10;99.90;;;;;;5070601;28;20036;-61
2021/12/07 08:28:19;;;;;;;8.68;7.88;;;1.10;99.90;;;;;;5070439;28;20387;-61
2021/12/07 08:30:47;;;;;;;9.05;7.30;;;1.10;99.90;;;;;;5070469;28;20429;-60
2021/12/07 08:33:12;;;;;;;7.70;7.00;;;1.00;99.90;;;;;;5070413;28;20020;-60
2021/12/07 08:35:39;;;;;;;8.02;7.22;;;1.10;99.90;;;;;;5070386;28;20536;-60
2021/12/07 08:38:05;;;;;;;7.43;6.72;;;1.10;99.90;;;;;;5070543;28;20276;-61
2021/12/07 08:40:34;;;;;;;8.80;7.13;;;1.00;99.90;;;;;;5070554;28;20012;-60
2021/12/07 08:43:00;;;;;;;7.28;6.57;;;1.10;99.90;;;;;;5070283;28;20024;-61
2021/12/07 08:45:30;;;;;;;6.25;5.65;;;1.10;99.90;;;;;;5070317;28;20013;-60
2021/12/07 08:47:56;;;;;;;12.75;10.40;;;1.20;99.90;;;;;;5070297;28;20361;-60
2021/12/07 08:50:24;;;;;;;7.28;6.55;;;1.10;99.90;;;;;;5070379;28;20028;-60
2021/12/07 08:52:52;;;;;;;6.40;5.80;;;1.10;99.90;;;;;;5070333;28;20119;-61
2021/12/07 09:00:49;;;;;;;6.45;5.88;;;1.10;99.90;;;;;;5070497;28;20486;-60
2021/12/07 09:03:15;;;;;;;6.53;5.85;;;1.20;99.90;;;;;;5068912;28;20105;-60
2021/12/07 09:05:40;;;;;;;6.28;5.68;;;1.20;99.90;;;;;;5070234;28;20032;-60
2021/12/07 09:08:06;;;;;;;12.70;10.10;;;1.20;99.90;;;;;;5070170;28;20021;-60
2021/12/07 09:10:32;;;;;;;26.70;15.98;;;1.20;99.90;;;;;;5070304;28;20024;-61
2021/12/07 09:12:58;;;;;;;6.15;5.57;;;1.20;99.90;;;;;;5069874;28;20474;-61
2021/12/07 09:15:24;;;;;;;14.20;9.35;;;1.30;99.90;;;;;;5069982;28;20029;-60
2021/12/07 09:17:50;;;;;;;6.18;5.63;;;1.40;99.90;;;;;;5070018;28;20020;-61
2021/12/07 09:20:16;;;;;;;5.63;5.20;;;1.40;99.90;;;;;;5068574;28;20024;-61
2021/12/07 09:22:44;;;;;;;5.45;4.95;;;1.50;99.90;;;;;;5070045;28;20023;-61
2021/12/07 09:25:10;;;;;;;7.90;5.38;;;1.50;99.90;;;;;;5070245;28;20402;-60
2021/12/07 09:27:35;;;;;;;7.20;5.65;;;1.50;99.90;;;;;;5070219;28;20079;-60
2021/12/07 09:30:02;;;;;;;5.03;4.53;;;1.60;99.90;;;;;;5069832;28;20531;-61
2021/12/07 09:32:27;;;;;;;5.15;4.75;;;1.50;99.90;;;;;;5069881;28;20147;-60
2021/12/07 09:34:53;;;;;;;5.43;4.90;;;1.60;99.90;;;;;;5069774;28;20523;-60
2021/12/07 09:37:19;;;;;;;6.18;5.57;;;1.60;99.90;;;;;;5072270;28;20024;-61
2021/12/07 09:39:45;;;;;;;10.80;7.82;;;1.60;99.90;;;;;;5073809;28;20395;-60
2021/12/07 09:42:11;;;;;;;6.15;5.50;;;1.50;99.90;;;;;;5073717;28;20029;-61
2021/12/07 09:44:36;;;;;;;5.20;4.63;;;1.50;99.90;;;;;;5073630;28;20024;-60
2021/12/07 09:47:02;;;;;;;8.90;7.07;;;1.70;99.90;;;;;;5073390;28;20036;-60
2021/12/07 09:49:28;;;;;;;4.90;4.50;;;1.70;99.90;;;;;;5073596;28;20028;-60
2021/12/07 09:51:54;;;;;;;5.38;4.88;;;1.90;99.90;;;;;;5073369;28;20039;-61
2021/12/07 09:54:20;;;;;;;5.28;4.78;;;2.00;99.90;;;;;;5072128;28;20031;-60
2021/12/07 09:56:45;;;;;;;8.50;5.10;;;2.10;99.90;;;;;;5073360;28;20111;-61
2021/12/07 09:59:11;;;;;;;7.90;7.07;;;2.00;99.90;;;;;;5073330;28;20020;-60
2021/12/07 10:01:40;;;;;;;9.85;5.43;;;2.10;99.90;;;;;;5073259;28;20032;-60
2021/12/07 10:04:06;;;;;;;5.47;4.18;;;2.30;99.90;;;;;;5073013;28;20074;-60
2021/12/07 10:06:31;;;;;;;4.95;4.40;;;2.50;99.90;;;;;;5073352;28;20028;-60
2021/12/07 10:08:57;;;;;;;13.73;8.20;;;2.50;99.90;;;;;;5073113;28;20025;-61
2021/12/07 10:11:24;;;;;;;4.95;4.43;;;2.70;99.90;;;;;;5073321;28;20025;-61
2021/12/07 10:13:51;;;;;;;5.93;4.38;;;2.80;99.90;;;;;;5072914;28;20045;-61
2021/12/07 10:16:18;;;;;;;6.38;4.18;;;3.20;99.90;;;;;;5073018;28;20029;-60
2021/12/07 10:18:44;;;;;;;4.72;3.90;;;3.90;99.90;;;;;;5072973;28;20056;-61
2021/12/07 10:21:17;;;;;;;3.75;3.45;;;3.90;99.90;;;;;;5072833;28;20071;-61
2021/12/07 10:23:43;;;;;;;;;;;4.40;99.90;;;;;;5073424;28;20016;-61
2021/12/07 10:26:16;;;;;;;4.10;3.80;;;4.60;99.90;;;;;;5072854;28;19913;-60
2021/12/07 10:28:50;;;;;;;9.32;3.70;;;3.70;99.90;;;;;;5072969;28;20470;-60
2021/12/07 10:31:18;;;;;;;9.93;5.70;;;3.50;99.90;;;;;;5072620;28;20024;-61
2021/12/07 10:33:53;;;;;;;4.55;4.03;;;3.30;99.90;;;;;;5072712;28;20061;-60
2021/12/07 10:36:29;;;;;;;14.70;7.28;;;3.30;99.90;;;;;;5072666;28;20024;-61
2021/12/07 10:38:59;;;;;;;8.82;5.25;;;3.20;99.90;;;;;;5072482;28;20021;-61
2021/12/07 10:41:26;;;;;;;9.65;5.75;;;3.10;99.90;;;;;;5072706;28;20012;-60
2021/12/07 10:44:03;;;;;;;15.52;8.15;;;3.10;99.90;;;;;;5072280;28;20445;-60
2021/12/07 10:46:48;;;;;;;7.88;3.83;;;3.20;99.90;;;;;;5071857;28;20025;-60
2021/12/07 10:49:29;;;;;;;7.20;5.13;;;3.20;99.90;;;;;;5071482;28;20115;-60
2021/12/07 10:52:07;;;;;;;35.55;17.00;;;3.10;99.90;;;;;;5065841;28;20036;-60
2021/12/07 10:54:43;;;;;;;4.57;4.18;;;3.10;99.90;;;;;;5042209;28;20033;-60
2021/12/07 10:57:14;;;;;;;5.85;4.35;;;3.20;99.90;;;;;;5039517;28;20033;-60
2021/12/07 10:59:48;;;;;;;12.00;7.75;;;3.40;99.90;;;;;;5040367;28;20051;-60
2021/12/07 11:02:16;;;;;;;4.32;4.03;;;3.50;99.90;;;;;;5040858;28;20021;-61
2021/12/07 11:04:43;;;;;;;6.45;5.25;;;3.80;99.90;;;;;;5038292;28;20269;-60
2021/12/07 11:07:30;;;;;;;5.13;4.65;;;3.80;99.90;;;;;;5041432;28;20040;-59
2021/12/07 11:10:20;;;;;;;5.15;3.78;;;3.40;99.90;;;;;;5039248;28;20120;-60
2021/12/07 11:15:27;;;;;;;4.50;3.92;;;3.40;99.90;;;;;;5039306;28;20205;-60
2021/12/07 11:17:57;;;;;;;6.80;3.58;;;3.40;99.90;;;;;;5040537;28;20028;-60
2021/12/07 11:20:23;;;;;;;5.53;4.57;;;3.40;99.90;;;;;;5039563;28;20037;-59
2021/12/07 11:22:54;;;;;;;3.80;3.50;;;3.40;99.90;;;;;;5038914;28;20495;-60
2021/12/07 11:31:35;;;;;;;4.50;4.05;;;3.80;99.90;;;;;;5040926;28;20118;-60
2021/12/07 11:34:11;;;;;;;3.90;3.60;;;3.70;99.90;;;;;;5040215;28;20035;-60
2021/12/07 11:36:41;;;;;;;4.60;3.88;;;4.00;99.90;;;;;;5041978;28;20401;-60
2021/12/07 11:39:25;;;;;;;5.20;3.25;;;4.10;99.90;;;;;;5048537;28;20029;-60
2021/12/07 11:41:58;;;;;;;6.57;3.95;;;4.40;99.90;;;;;;5050945;28;20052;-60
2021/12/07 11:44:24;;;;;;;;;;;4.70;99.90;;;;;;5050769;28;20416;-60
2021/12/07 11:46:51;;;;;;;3.97;3.35;;;5.20;99.90;;;;;;5051464;28;19970;-60
2021/12/07 11:49:22;;;;;;;5.63;4.45;;;5.30;99.90;;;;;;5051270;28;20025;-60
2021/12/07 11:51:50;;;;;;;5.75;3.88;;;4.80;99.90;;;;;;5048827;28;20118;-60
2021/12/07 11:54:18;;;;;;;8.82;4.72;;;4.60;99.90;;;;;;5051805;28;20029;-60
2021/12/07 11:56:46;;;;;;;8.63;3.80;;;4.40;99.90;;;;;;5052219;28;20021;-60
2021/12/07 11:59:14;;;;;;;7.75;6.05;;;4.10;99.90;;;;;;5039000;28;20463;-60
2021/12/07 12:01:40;;;;;;;6.25;3.88;;;3.80;99.90;;;;;;5040724;28;20037;-60
2021/12/07 12:04:06;;;;;;;9.48;4.57;;;3.90;99.90;;;;;;5041358;28;20040;-60
2021/12/07 12:06:32;;;;;;;7.18;5.63;;;3.80;99.90;;;;;;5040179;28;20033;-60
2021/12/07 12:08:59;;;;;;;5.30;4.35;;;3.50;99.90;;;;;;5041346;28;20395;-60
2021/12/07 12:11:34;;;;;;;4.35;3.60;;;3.70;99.90;;;;;;5040925;28;20032;-60
2021/12/07 12:14:33;;;;;;;9.85;4.65;;;3.70;99.90;;;;;;5058708;28;20648;-61
2021/12/07 12:17:35;;;;;;;5.68;5.10;;;3.70;99.90;;;;;;5041367;28;20041;-60
2021/12/07 12:20:31;;;;;;;7.40;4.07;;;3.70;99.90;;;;;;5059964;28;20044;-60
2021/12/07 12:23:07;;;;;;;7.97;6.32;;;3.80;99.90;;;;;;5060018;28;20032;-59
2021/12/07 12:25:35;;;;;;;4.30;3.55;;;3.70;99.90;;;;;;5060987;28;20142;-60
2021/12/07 12:28:01;;;;;;;5.07;3.78;;;3.70;99.90;;;;;;5061342;28;20503;-60
2021/12/07 12:30:33;;;;;;;5.68;4.65;;;3.80;99.90;;;;;;5040608;28;20043;-60
2021/12/07 12:33:10;;;;;;;6.18;4.28;;;3.80;99.90;;;;;;5060266;28;20028;-60
2021/12/07 12:35:41;;;;;;;5.78;3.80;;;3.80;99.90;;;;;;5060664;28;20029;-60
2021/12/07 12:38:25;;;;;;;7.10;3.90;;;3.80;99.90;;;;;;5059907;28;20434;-60
2021/12/07 12:41:01;;;;;;;;;;;3.70;99.90;;;;;;5061137;28;20016;-60
2021/12/07 12:43:41;;;;;;;8.50;5.30;;;3.80;99.90;;;;;;5058651;28;19909;-60
2021/12/07 12:46:10;;;;;;;25.33;13.13;;;3.70;99.90;;;;;;5059684;28;20028;-60
2021/12/07 12:48:35;;;;;;;13.38;6.63;;;3.80;99.90;;;;;;5050501;28;20380;-60
2021/12/07 12:51:04;;;;;;;6.05;4.20;;;3.70;99.90;;;;;;5045453;28;20040;-60
2021/12/07 12:53:34;;;;;;;6.03;4.47;;;3.70;99.90;;;;;;5040696;28;20035;-60
2021/12/07 12:56:01;;;;;;;4.18;3.88;;;3.70;99.90;;;;;;5044281;28;20358;-60
2021/12/07 12:58:34;;;;;;;8.77;5.13;;;3.60;99.90;;;;;;5050054;28;20029;-60
2021/12/07 13:01:22;;;;;;;6.93;5.28;;;3.70;99.90;;;;;;5051203;28;20356;-60
2021/12/07 13:03:57;;;;;;;9.50;4.60;;;3.70;99.90;;;;;;5051532;28;20064;-60
2021/12/07 13:07:23;;;;;;;20.63;10.80;;;3.70;99.90;;;;;;5049955;28;20033;-60
2021/12/07 13:09:52;;;;;;;25.45;11.93;;;3.60;99.90;;;;;;5050682;28;20029;-60
2021/12/07 13:12:33;;;;;;;10.00;4.68;;;3.70;99.90;;;;;;5053005;28;20072;-61
2021/12/07 13:15:00;;;;;;;10.98;6.93;;;3.70;99.90;;;;;;5054874;28;20029;-60
2021/12/07 13:17:40;;;;;;;13.27;5.53;;;3.70;99.90;;;;;;5054835;28;20025;-60
2021/12/07 13:20:12;;;;;;;6.72;4.07;;;3.80;99.90;;;;;;5053634;28;20035;-60
2021/12/07 13:22:47;;;;;;;8.02;5.70;;;3.70;99.90;;;;;;5053852;28;20021;-59
2021/12/07 13:25:19;;;;;;;14.93;5.93;;;3.70;99.90;;;;;;5053066;28;20032;-60
2021/12/07 13:28:04;;;;;;;10.07;6.40;;;3.70;99.90;;;;;;5051380;28;20396;-60
2021/12/07 13:31:14;;;;;;;4.70;4.07;;;3.50;99.90;;;;;;5053984;28;20013;-60
2021/12/07 13:33:52;;;;;;;10.40;5.15;;;3.60;99.90;;;;;;5048495;28;20029;-60
2021/12/07 13:36:27;;;;;;;13.50;7.97;;;3.50;99.90;;;;;;5053860;28;20067;-60
2021/12/07 13:38:52;;;;;;;10.63;6.20;;;3.40;99.90;;;;;;5051785;28;20331;-60
2021/12/07 13:41:20;;;;;;;18.38;10.07;;;3.40;99.90;;;;;;5039729;28;20491;-60
2021/12/07 13:43:50;;;;;;;5.80;4.75;;;3.40;99.90;;;;;;5042020;28;20052;-60
2021/12/07 13:46:25;;;;;;;11.73;6.70;;;3.30;99.90;;;;;;5043077;28;20490;-60
2021/12/07 13:51:46;;;;;;;4.90;3.88;;;3.30;99.90;;;;;;5042337;28;20442;-60
2021/12/07 13:54:19;;;;;;;4.60;3.88;;;3.30;99.90;;;;;;5041771;28;20037;-60
2021/12/07 13:56:46;;;;;;;;;;;3.30;99.90;;;;;;5042411;28;20056;-60
2021/12/07 13:59:15;;;;;;;7.82;5.30;;;3.20;99.90;;;;;;5041871;28;19913;-60
2021/12/07 14:01:55;;;;;;;7.90;4.20;;;3.20;99.90;;;;;;5041200;28;20387;-60
2021/12/07 14:04:27;;;;;;;16.63;10.13;;;3.20;99.90;;;;;;5056946;28;20039;-60
2021/12/07 14:06:54;;;;;;;6.65;4.88;;;3.20;99.90;;;;;;5041555;28;20025;-60
2021/12/07 14:09:21;;;;;;;4.90;4.45;;;3.20;99.90;;;;;;5040628;28;20029;-59
2021/12/07 14:11:52;;;;;;;9.82;7.28;;;3.20;99.90;;;;;;5042098;28;20025;-59
2021/12/07 14:14:20;;;;;;;4.80;4.30;;;3.10;99.90;;;;;;5040529;28;20098;-60
2021/12/07 14:16:47;;;;;;;21.50;10.63;;;3.20;99.90;;;;;;5041573;28;20021;-60
2021/12/07 14:19:13;;;;;;;10.57;5.45;;;3.20;99.90;;;;;;5041835;28;20108;-60
2021/12/07 14:21:40;;;;;;;15.00;5.88;;;3.20;99.90;;;;;;5040443;28;20432;-60
2021/12/07 14:24:15;;;;;;;7.72;4.40;;;3.20;99.90;;;;;;5040918;28;20138;-60
2021/12/07 14:26:42;;;;;;;5.28;4.22;;;3.30;99.90;;;;;;5041055;28;20391;-60
2021/12/07 14:29:14;;;;;;;5.30;4.75;;;3.30;99.90;;;;;;5041606;28;20025;-60
2021/12/07 14:31:46;;;;;;;6.82;3.95;;;3.30;99.90;;;;;;5041148;28;20029;-60
2021/12/07 14:34:15;;;;;;;27.15;11.98;;;3.30;99.90;;;;;;5041208;28;20033;-60
2021/12/07 14:36:47;;;;;;;13.77;6.07;;;3.30;99.90;;;;;;5040527;28;20037;-60
2021/12/07 14:39:19;;;;;;;29.90;12.73;;;3.20;99.90;;;;;;5041440;28;20057;-60
2021/12/07 14:42:09;;;;;;;7.22;4.93;;;3.10;99.90;;;;;;5052529;28;20513;-59
2021/12/07 14:44:45;;;;;;;5.85;4.15;;;3.20;99.90;;;;;;5052434;28;20025;-60
2021/12/07 14:47:12;;;;;;;7.50;4.28;;;3.10;99.90;;;;;;5052307;28;20032;-60
2021/12/07 14:49:47;;;;;;;6.53;4.25;;;3.10;99.90;;;;;;5052479;28;20021;-60
2021/12/07 14:52:17;;;;;;;7.53;5.70;;;3.10;99.90;;;;;;5052520;28;20116;-60
2021/12/07 14:54:44;;;;;;;7.38;4.88;;;3.10;99.90;;;;;;5051954;28;20052;-59